N478PJ KEQY-KCLT
Flight info
| Callsign | N478PJ |
|---|---|
| Flight time | N/A |
| Altitude | 14000 |
| Route | DCT CAVVI DCT |
| Aircraft | C750/M-SBDE3FGHRWXY/S |
Departure
| Time | 2026-05-04 20:29 |
|---|---|
| Airport | Charlotte-Monroe Executive Airport (KEQY) |
Arrival
| Time | N/A |
|---|---|
| Airport | Charlotte Douglas International Airport (KCLT) |
| Time | Latitude | Longitude | Altitude | Speed | Heading |
|---|---|---|---|---|---|
| 2026-05-04 20:15 | 35.01901 | -80.62249 | 677 ft | 0 kts | 232° |
| 2026-05-04 20:26 | 35.01893 | -80.62249 | 677 ft | 4 kts | 163° |
| 2026-05-04 20:26 | 35.01903 | -80.62202 | 676 ft | 14 kts | 70° |
| 2026-05-04 20:26 | 35.02000 | -80.62076 | 675 ft | 27 kts | 45° |
| 2026-05-04 20:27 | 35.02130 | -80.61857 | 673 ft | 38 kts | 48° |
| 2026-05-04 20:27 | 35.02333 | -80.61592 | 670 ft | 45 kts | 46° |
| 2026-05-04 20:27 | 35.02444 | -80.61436 | 667 ft | 10 kts | 72° |
| 2026-05-04 20:27 | 35.02446 | -80.61426 | 667 ft | 2 kts | 82° |
| 2026-05-04 20:28 | 35.02435 | -80.61402 | 667 ft | 7 kts | 128° |
| 2026-05-04 20:28 | 35.02377 | -80.61380 | 668 ft | 11 kts | 226° |
| 2026-05-04 20:28 | 35.02177 | -80.61642 | 673 ft | 97 kts | 227° |
| 2026-05-04 20:28 | 35.01530 | -80.62482 | 813 ft | 155 kts | 225° |
| 2026-05-04 20:29 | 35.00887 | -80.63648 | 1182 ft | 186 kts | 255° |
| 2026-05-04 20:29 | 35.01088 | -80.65365 | 1451 ft | 230 kts | 291° |
| 2026-05-04 20:29 | 35.02213 | -80.66962 | 1371 ft | 263 kts | 324° |
| 2026-05-04 20:29 | 35.03850 | -80.67760 | 2002 ft | 255 kts | 340° |
| 2026-05-04 20:30 | 35.05556 | -80.68531 | 2845 ft | 266 kts | 335° |
| 2026-05-04 20:30 | 35.07199 | -80.69552 | 3641 ft | 265 kts | 328° |
| 2026-05-04 20:30 | 35.08855 | -80.70666 | 4068 ft | 276 kts | 329° |
| 2026-05-04 20:30 | 35.10552 | -80.71709 | 4024 ft | 272 kts | 332° |
| 2026-05-04 20:31 | 35.12271 | -80.72729 | 3996 ft | 277 kts | 331° |
| 2026-05-04 20:31 | 35.13980 | -80.73780 | 4023 ft | 271 kts | 330° |
| 2026-05-04 20:31 | 35.15656 | -80.74829 | 3997 ft | 271 kts | 330° |
| 2026-05-04 20:31 | 35.17344 | -80.75873 | 4006 ft | 271 kts | 330° |
| 2026-05-04 20:32 | 35.19012 | -80.76902 | 4031 ft | 271 kts | 330° |
| 2026-05-04 20:32 | 35.20702 | -80.77946 | 4023 ft | 272 kts | 331° |
| 2026-05-04 20:32 | 35.22408 | -80.78999 | 3983 ft | 274 kts | 331° |
| 2026-05-04 20:32 | 35.24076 | -80.80032 | 4024 ft | 274 kts | 330° |
| 2026-05-04 20:33 | 35.25663 | -80.81310 | 3898 ft | 274 kts | 317° |
| 2026-05-04 20:33 | 35.27026 | -80.82932 | 3480 ft | 270 kts | 311° |
| 2026-05-04 20:33 | 35.28343 | -80.84548 | 3091 ft | 267 kts | 313° |
| 2026-05-04 20:33 | 35.29670 | -80.86156 | 2687 ft | 266 kts | 313° |
| 2026-05-04 20:34 | 35.30973 | -80.87731 | 2266 ft | 265 kts | 312° |
| 2026-05-04 20:34 | 35.32161 | -80.89258 | 1667 ft | 229 kts | 301° |
| 2026-05-04 20:34 | 35.32607 | -80.90956 | 1400 ft | 191 kts | 278° |
| 2026-05-04 20:34 | 35.32820 | -80.92604 | 1626 ft | 203 kts | 275° |
| 2026-05-04 20:35 | 35.32981 | -80.94406 | 1663 ft | 223 kts | 272° |
| 2026-05-04 20:35 | 35.32634 | -80.96074 | 1697 ft | 206 kts | 221° |